LXGB/GIB METAR and TAF weather

Enter ICAO airport designator
Station Type Date Time Source
LXGB METAR 2020/01/29 12:50 UTC NOAA

LXGB 291250Z 21006KT CAVOK 19/11 Q1024 NOSIG RMK BLU BLU


Station Type Date Time Source
LXGB Decoded METAR 2020/01/29 12:50 UTC NOAA

Gibraltar, Gibraltar (LXGB) 36-09N 005-21W 0M
Jan 29, 2020 - 07:50 AM EST / 2020.01.29 1250 UTC
Wind: from the SSW (210 degrees) at 7 MPH (6 KT):0
Visibility: greater than 7 mile(s):0
Temperature: 66 F (19 C)
Dew Point: 51 F (11 C)
Relative Humidity: 59%
Pressure (altimeter): 30.24 in. Hg (1024 hPa)
ob: LXGB 291250Z 21006KT CAVOK 19/11 Q1024 NOSIG RMK BLU BLU
cycle: 13

Station Type Date Time Source
LXGB TAF 2019/05/20 18:18 UTC NOAA

TAF
AMD TAF
AMD LXGB 202014Z 2018/2222 CNL

Example: see airport list